sensor_id;sensor_type;location;lat;lon;timestamp;P1;durP1;ratioP1;P2;durP2;ratioP2
33840;SDS011;20142;28.494;-16.312;2022-10-16T00:02:48;27.90;;;4.80;;
33840;SDS011;20142;28.494;-16.312;2022-10-16T00:07:50;25.08;;;5.15;;
33840;SDS011;20142;28.494;-16.312;2022-10-16T00:12:52;21.90;;;4.30;;
33840;SDS011;20142;28.494;-16.312;2022-10-16T00:17:53;29.63;;;4.78;;
33840;SDS011;20142;28.494;-16.312;2022-10-16T00:22:55;31.00;;;5.10;;
33840;SDS011;20142;28.494;-16.312;2022-10-16T00:27:57;32.65;;;5.47;;
33840;SDS011;20142;28.494;-16.312;2022-10-16T00:32:59;29.60;;;4.25;;
33840;SDS011;20142;28.494;-16.312;2022-10-16T00:38:01;25.80;;;5.30;;
33840;SDS011;20142;28.494;-16.312;2022-10-16T00:43:02;27.35;;;5.05;;
33840;SDS011;20142;28.494;-16.312;2022-10-16T00:48:13;25.60;;;4.68;;
33840;SDS011;20142;28.494;-16.312;2022-10-16T00:53:23;26.35;;;5.03;;
33840;SDS011;20142;28.494;-16.312;2022-10-16T00:58:26;24.30;;;5.00;;
33840;SDS011;20142;28.494;-16.312;2022-10-16T01:03:29;24.77;;;4.80;;
33840;SDS011;20142;28.494;-16.312;2022-10-16T01:08:39;22.73;;;4.80;;
33840;SDS011;20142;28.494;-16.312;2022-10-16T01:14:10;25.55;;;4.43;;
33840;SDS011;20142;28.494;-16.312;2022-10-16T01:24:55;28.80;;;4.90;;
33840;SDS011;20142;28.494;-16.312;2022-10-16T01:30:20;26.70;;;5.13;;
33840;SDS011;20142;28.494;-16.312;2022-10-16T01:35:32;27.45;;;3.95;;
33840;SDS011;20142;28.494;-16.312;2022-10-16T01:40:42;26.70;;;5.32;;
33840;SDS011;20142;28.494;-16.312;2022-10-16T01:45:52;24.52;;;4.50;;
33840;SDS011;20142;28.494;-16.312;2022-10-16T01:50:59;17.70;;;4.00;;
33840;SDS011;20142;28.494;-16.312;2022-10-16T01:56:08;28.83;;;4.35;;
33840;SDS011;20142;28.494;-16.312;2022-10-16T02:01:13;25.15;;;4.30;;
33840;SDS011;20142;28.494;-16.312;2022-10-16T02:06:18;21.25;;;4.35;;
33840;SDS011;20142;28.494;-16.312;2022-10-16T02:11:20;27.77;;;5.00;;
33840;SDS011;20142;28.494;-16.312;2022-10-16T02:21:27;30.58;;;4.80;;
33840;SDS011;20142;28.494;-16.312;2022-10-16T02:32:04;24.40;;;4.28;;
33840;SDS011;20142;28.494;-16.312;2022-10-16T02:37:08;22.63;;;4.50;;
33840;SDS011;20142;28.494;-16.312;2022-10-16T02:42:11;20.02;;;3.88;;
33840;SDS011;20142;28.494;-16.312;2022-10-16T02:47:14;25.77;;;4.28;;
33840;SDS011;20142;28.494;-16.312;2022-10-16T02:52:16;23.70;;;4.28;;
33840;SDS011;20142;28.494;-16.312;2022-10-16T02:57:18;27.05;;;3.72;;
33840;SDS011;20142;28.494;-16.312;2022-10-16T03:02:20;20.33;;;3.75;;
33840;SDS011;20142;28.494;-16.312;2022-10-16T03:07:21;27.27;;;4.28;;
33840;SDS011;20142;28.494;-16.312;2022-10-16T03:12:23;25.73;;;4.20;;
33840;SDS011;20142;28.494;-16.312;2022-10-16T03:17:24;25.40;;;3.88;;
33840;SDS011;20142;28.494;-16.312;2022-10-16T03:22:26;26.38;;;4.72;;
33840;SDS011;20142;28.494;-16.312;2022-10-16T03:27:28;28.55;;;4.20;;
33840;SDS011;20142;28.494;-16.312;2022-10-16T03:32:29;18.83;;;3.60;;
33840;SDS011;20142;28.494;-16.312;2022-10-16T03:37:31;21.13;;;4.28;;
33840;SDS011;20142;28.494;-16.312;2022-10-16T03:42:33;27.55;;;4.28;;
33840;SDS011;20142;28.494;-16.312;2022-10-16T03:47:34;26.40;;;4.70;;
33840;SDS011;20142;28.494;-16.312;2022-10-16T03:52:36;27.73;;;3.97;;
33840;SDS011;20142;28.494;-16.312;2022-10-16T03:57:38;26.27;;;4.45;;
33840;SDS011;20142;28.494;-16.312;2022-10-16T04:02:39;23.80;;;3.85;;
33840;SDS011;20142;28.494;-16.312;2022-10-16T04:07:41;22.40;;;4.00;;
33840;SDS011;20142;28.494;-16.312;2022-10-16T04:12:43;20.73;;;4.40;;
33840;SDS011;20142;28.494;-16.312;2022-10-16T04:17:44;18.73;;;3.70;;
33840;SDS011;20142;28.494;-16.312;2022-10-16T04:22:46;22.02;;;3.50;;
33840;SDS011;20142;28.494;-16.312;2022-10-16T04:27:48;19.08;;;4.05;;
33840;SDS011;20142;28.494;-16.312;2022-10-16T04:32:50;20.38;;;3.60;;
33840;SDS011;20142;28.494;-16.312;2022-10-16T04:37:52;23.85;;;3.42;;
33840;SDS011;20142;28.494;-16.312;2022-10-16T04:42:54;18.83;;;4.20;;
33840;SDS011;20142;28.494;-16.312;2022-10-16T04:47:58;21.65;;;3.50;;
33840;SDS011;20142;28.494;-16.312;2022-10-16T04:53:00;20.15;;;4.18;;
33840;SDS011;20142;28.494;-16.312;2022-10-16T04:58:02;19.48;;;4.25;;
33840;SDS011;20142;28.494;-16.312;2022-10-16T05:03:04;20.60;;;4.47;;
33840;SDS011;20142;28.494;-16.312;2022-10-16T05:08:09;25.95;;;4.30;;
33840;SDS011;20142;28.494;-16.312;2022-10-16T05:13:12;25.92;;;4.22;;
33840;SDS011;20142;28.494;-16.312;2022-10-16T05:18:14;21.77;;;3.72;;
33840;SDS011;20142;28.494;-16.312;2022-10-16T05:23:17;20.13;;;3.63;;
33840;SDS011;20142;28.494;-16.312;2022-10-16T05:28:18;19.40;;;4.10;;
33840;SDS011;20142;28.494;-16.312;2022-10-16T05:33:20;20.48;;;3.58;;
33840;SDS011;20142;28.494;-16.312;2022-10-16T05:38:24;19.63;;;3.85;;
33840;SDS011;20142;28.494;-16.312;2022-10-16T05:43:27;24.63;;;4.55;;
33840;SDS011;20142;28.494;-16.312;2022-10-16T05:48:29;24.95;;;4.47;;
33840;SDS011;20142;28.494;-16.312;2022-10-16T05:53:32;24.45;;;3.90;;
33840;SDS011;20142;28.494;-16.312;2022-10-16T05:58:36;26.25;;;4.35;;
33840;SDS011;20142;28.494;-16.312;2022-10-16T06:03:38;23.77;;;4.35;;
33840;SDS011;20142;28.494;-16.312;2022-10-16T06:08:41;21.90;;;4.60;;
33840;SDS011;20142;28.494;-16.312;2022-10-16T06:13:44;27.17;;;4.70;;
33840;SDS011;20142;28.494;-16.312;2022-10-16T06:18:46;19.73;;;3.90;;
33840;SDS011;20142;28.494;-16.312;2022-10-16T06:23:48;28.38;;;4.47;;
33840;SDS011;20142;28.494;-16.312;2022-10-16T06:28:50;24.13;;;3.70;;
33840;SDS011;20142;28.494;-16.312;2022-10-16T06:33:51;19.90;;;3.70;;
33840;SDS011;20142;28.494;-16.312;2022-10-16T06:38:54;18.38;;;4.60;;
33840;SDS011;20142;28.494;-16.312;2022-10-16T06:43:56;21.58;;;4.25;;
33840;SDS011;20142;28.494;-16.312;2022-10-16T06:48:57;29.05;;;4.38;;
33840;SDS011;20142;28.494;-16.312;2022-10-16T06:53:59;17.10;;;4.15;;
33840;SDS011;20142;28.494;-16.312;2022-10-16T06:59:01;25.98;;;5.30;;
33840;SDS011;20142;28.494;-16.312;2022-10-16T07:04:03;25.83;;;4.68;;
33840;SDS011;20142;28.494;-16.312;2022-10-16T07:09:05;23.23;;;4.60;;
33840;SDS011;20142;28.494;-16.312;2022-10-16T07:14:12;40.20;;;8.13;;
33840;SDS011;20142;28.494;-16.312;2022-10-16T07:19:18;23.70;;;5.13;;
33840;SDS011;20142;28.494;-16.312;2022-10-16T07:24:20;27.98;;;4.28;;
33840;SDS011;20142;28.494;-16.312;2022-10-16T07:29:21;34.83;;;5.45;;
33840;SDS011;20142;28.494;-16.312;2022-10-16T07:34:23;23.08;;;4.35;;
33840;SDS011;20142;28.494;-16.312;2022-10-16T07:39:25;30.38;;;6.65;;
33840;SDS011;20142;28.494;-16.312;2022-10-16T07:44:27;24.63;;;4.47;;
33840;SDS011;20142;28.494;-16.312;2022-10-16T07:49:28;23.77;;;5.50;;
33840;SDS011;20142;28.494;-16.312;2022-10-16T07:54:30;22.52;;;4.85;;
33840;SDS011;20142;28.494;-16.312;2022-10-16T07:59:31;22.63;;;5.13;;
33840;SDS011;20142;28.494;-16.312;2022-10-16T08:04:33;25.80;;;5.30;;
33840;SDS011;20142;28.494;-16.312;2022-10-16T08:09:35;23.45;;;4.57;;
33840;SDS011;20142;28.494;-16.312;2022-10-16T08:14:36;21.70;;;4.82;;
33840;SDS011;20142;28.494;-16.312;2022-10-16T08:19:38;29.25;;;4.95;;
33840;SDS011;20142;28.494;-16.312;2022-10-16T08:24:40;32.42;;;5.25;;
33840;SDS011;20142;28.494;-16.312;2022-10-16T08:29:41;23.52;;;4.75;;
33840;SDS011;20142;28.494;-16.312;2022-10-16T08:34:43;30.73;;;5.88;;
33840;SDS011;20142;28.494;-16.312;2022-10-16T08:39:45;19.77;;;4.18;;
33840;SDS011;20142;28.494;-16.312;2022-10-16T08:50:22;25.27;;;4.25;;
33840;SDS011;20142;28.494;-16.312;2022-10-16T08:55:31;19.23;;;3.90;;
33840;SDS011;20142;28.494;-16.312;2022-10-16T09:00:47;20.25;;;3.92;;
33840;SDS011;20142;28.494;-16.312;2022-10-16T09:06:00;20.77;;;3.13;;
33840;SDS011;20142;28.494;-16.312;2022-10-16T09:16:36;14.63;;;2.80;;
33840;SDS011;20142;28.494;-16.312;2022-10-16T09:21:44;14.45;;;2.88;;
33840;SDS011;20142;28.494;-16.312;2022-10-16T09:26:48;13.77;;;2.83;;
33840;SDS011;20142;28.494;-16.312;2022-10-16T09:31:49;18.30;;;3.03;;
33840;SDS011;20142;28.494;-16.312;2022-10-16T09:36:53;22.67;;;3.42;;
33840;SDS011;20142;28.494;-16.312;2022-10-16T09:41:56;21.88;;;3.83;;
33840;SDS011;20142;28.494;-16.312;2022-10-16T09:47:05;15.25;;;2.95;;
33840;SDS011;20142;28.494;-16.312;2022-10-16T09:52:18;12.30;;;2.38;;
33840;SDS011;20142;28.494;-16.312;2022-10-16T09:57:21;17.17;;;2.67;;
33840;SDS011;20142;28.494;-16.312;2022-10-16T10:02:44;21.00;;;3.38;;
33840;SDS011;20142;28.494;-16.312;2022-10-16T10:07:45;21.77;;;2.90;;
33840;SDS011;20142;28.494;-16.312;2022-10-16T10:12:57;20.25;;;3.00;;
33840;SDS011;20142;28.494;-16.312;2022-10-16T10:18:00;16.15;;;2.80;;
33840;SDS011;20142;28.494;-16.312;2022-10-16T10:23:19;17.30;;;2.35;;
33840;SDS011;20142;28.494;-16.312;2022-10-16T10:50:25;20.02;;;3.17;;
33840;SDS011;20142;28.494;-16.312;2022-10-16T10:55:59;20.02;;;2.50;;
33840;SDS011;20142;28.494;-16.312;2022-10-16T11:02:00;20.05;;;2.70;;
33840;SDS011;20142;28.494;-16.312;2022-10-16T11:07:17;17.45;;;3.10;;
33840;SDS011;20142;28.494;-16.312;2022-10-16T11:17:41;23.65;;;4.10;;
33840;SDS011;20142;28.494;-16.312;2022-10-16T11:28:50;19.58;;;3.08;;
33840;SDS011;20142;28.494;-16.312;2022-10-16T11:39:21;17.77;;;2.90;;
33840;SDS011;20142;28.494;-16.312;2022-10-16T11:44:38;22.02;;;3.38;;
33840;SDS011;20142;28.494;-16.312;2022-10-16T11:49:49;17.50;;;3.20;;
33840;SDS011;20142;28.494;-16.312;2022-10-16T11:54:57;15.15;;;3.10;;
33840;SDS011;20142;28.494;-16.312;2022-10-16T12:00:28;16.88;;;2.70;;
33840;SDS011;20142;28.494;-16.312;2022-10-16T12:06:06;13.85;;;2.97;;
33840;SDS011;20142;28.494;-16.312;2022-10-16T12:11:37;13.97;;;2.30;;
33840;SDS011;20142;28.494;-16.312;2022-10-16T12:21:58;13.35;;;2.38;;
33840;SDS011;20142;28.494;-16.312;2022-10-16T12:27:02;18.10;;;3.30;;
33840;SDS011;20142;28.494;-16.312;2022-10-16T12:32:32;17.80;;;2.67;;
33840;SDS011;20142;28.494;-16.312;2022-10-16T12:37:37;19.77;;;2.70;;
33840;SDS011;20142;28.494;-16.312;2022-10-16T12:42:39;17.73;;;2.88;;
33840;SDS011;20142;28.494;-16.312;2022-10-16T12:47:48;15.63;;;3.25;;
33840;SDS011;20142;28.494;-16.312;2022-10-16T12:52:52;11.32;;;2.35;;
33840;SDS011;20142;28.494;-16.312;2022-10-16T13:14:46;17.90;;;3.22;;
33840;SDS011;20142;28.494;-16.312;2022-10-16T13:25:54;15.95;;;2.72;;
33840;SDS011;20142;28.494;-16.312;2022-10-16T13:31:21;17.65;;;3.67;;
33840;SDS011;20142;28.494;-16.312;2022-10-16T13:36:26;20.48;;;3.17;;
33840;SDS011;20142;28.494;-16.312;2022-10-16T13:41:28;11.80;;;3.50;;
33840;SDS011;20142;28.494;-16.312;2022-10-16T13:46:30;17.10;;;2.50;;
33840;SDS011;20142;28.494;-16.312;2022-10-16T13:51:34;14.43;;;3.28;;
33840;SDS011;20142;28.494;-16.312;2022-10-16T13:56:38;20.45;;;3.78;;
33840;SDS011;20142;28.494;-16.312;2022-10-16T14:01:41;19.63;;;3.05;;
33840;SDS011;20142;28.494;-16.312;2022-10-16T14:06:45;17.08;;;3.40;;
33840;SDS011;20142;28.494;-16.312;2022-10-16T14:11:50;24.65;;;3.55;;
33840;SDS011;20142;28.494;-16.312;2022-10-16T14:17:02;23.65;;;3.03;;
33840;SDS011;20142;28.494;-16.312;2022-10-16T14:22:11;24.30;;;3.53;;
33840;SDS011;20142;28.494;-16.312;2022-10-16T14:27:37;14.32;;;2.20;;
33840;SDS011;20142;28.494;-16.312;2022-10-16T14:32:39;15.88;;;3.67;;
33840;SDS011;20142;28.494;-16.312;2022-10-16T14:37:43;19.55;;;3.08;;
33840;SDS011;20142;28.494;-16.312;2022-10-16T14:42:45;18.63;;;3.20;;
33840;SDS011;20142;28.494;-16.312;2022-10-16T14:47:48;16.88;;;3.22;;
33840;SDS011;20142;28.494;-16.312;2022-10-16T14:53:00;14.52;;;3.15;;
33840;SDS011;20142;28.494;-16.312;2022-10-16T14:58:02;14.88;;;3.40;;
33840;SDS011;20142;28.494;-16.312;2022-10-16T15:03:04;17.15;;;3.03;;
33840;SDS011;20142;28.494;-16.312;2022-10-16T15:08:06;21.88;;;3.53;;
33840;SDS011;20142;28.494;-16.312;2022-10-16T15:13:09;14.75;;;3.28;;
33840;SDS011;20142;28.494;-16.312;2022-10-16T15:18:14;14.05;;;2.65;;
33840;SDS011;20142;28.494;-16.312;2022-10-16T15:23:21;14.80;;;2.95;;
33840;SDS011;20142;28.494;-16.312;2022-10-16T15:28:23;16.08;;;2.70;;
33840;SDS011;20142;28.494;-16.312;2022-10-16T15:33:26;13.65;;;2.72;;
33840;SDS011;20142;28.494;-16.312;2022-10-16T15:38:33;15.50;;;3.00;;
33840;SDS011;20142;28.494;-16.312;2022-10-16T15:43:35;14.02;;;3.88;;
33840;SDS011;20142;28.494;-16.312;2022-10-16T15:48:37;11.93;;;2.63;;
33840;SDS011;20142;28.494;-16.312;2022-10-16T15:53:39;14.95;;;3.28;;
33840;SDS011;20142;28.494;-16.312;2022-10-16T15:58:41;13.57;;;3.20;;
33840;SDS011;20142;28.494;-16.312;2022-10-16T16:03:43;18.42;;;3.67;;
33840;SDS011;20142;28.494;-16.312;2022-10-16T16:08:45;15.52;;;3.22;;
33840;SDS011;20142;28.494;-16.312;2022-10-16T16:13:47;17.90;;;2.95;;
33840;SDS011;20142;28.494;-16.312;2022-10-16T16:18:48;15.68;;;3.03;;
33840;SDS011;20142;28.494;-16.312;2022-10-16T16:23:54;24.83;;;4.18;;
33840;SDS011;20142;28.494;-16.312;2022-10-16T16:28:56;17.20;;;3.15;;
33840;SDS011;20142;28.494;-16.312;2022-10-16T16:33:58;18.67;;;3.45;;
33840;SDS011;20142;28.494;-16.312;2022-10-16T16:39:00;19.40;;;3.28;;
33840;SDS011;20142;28.494;-16.312;2022-10-16T16:44:03;16.85;;;2.83;;
33840;SDS011;20142;28.494;-16.312;2022-10-16T16:49:09;16.48;;;3.70;;
33840;SDS011;20142;28.494;-16.312;2022-10-16T16:54:12;18.65;;;3.45;;
33840;SDS011;20142;28.494;-16.312;2022-10-16T16:59:15;16.13;;;3.28;;
33840;SDS011;20142;28.494;-16.312;2022-10-16T17:04:20;16.45;;;3.15;;
33840;SDS011;20142;28.494;-16.312;2022-10-16T17:09:22;19.30;;;3.63;;
33840;SDS011;20142;28.494;-16.312;2022-10-16T17:14:23;18.08;;;3.55;;
33840;SDS011;20142;28.494;-16.312;2022-10-16T17:19:25;15.38;;;2.97;;
33840;SDS011;20142;28.494;-16.312;2022-10-16T17:24:27;20.33;;;3.88;;
33840;SDS011;20142;28.494;-16.312;2022-10-16T17:29:29;18.77;;;2.97;;
33840;SDS011;20142;28.494;-16.312;2022-10-16T17:34:30;14.50;;;2.88;;
33840;SDS011;20142;28.494;-16.312;2022-10-16T17:39:32;18.73;;;2.90;;
33840;SDS011;20142;28.494;-16.312;2022-10-16T17:44:33;19.90;;;3.33;;
33840;SDS011;20142;28.494;-16.312;2022-10-16T17:49:35;18.33;;;3.47;;
33840;SDS011;20142;28.494;-16.312;2022-10-16T17:54:37;20.42;;;3.10;;
33840;SDS011;20142;28.494;-16.312;2022-10-16T17:59:39;19.50;;;3.20;;
33840;SDS011;20142;28.494;-16.312;2022-10-16T18:04:41;16.73;;;3.83;;
33840;SDS011;20142;28.494;-16.312;2022-10-16T18:09:42;15.82;;;3.10;;
33840;SDS011;20142;28.494;-16.312;2022-10-16T18:14:44;20.30;;;3.35;;
33840;SDS011;20142;28.494;-16.312;2022-10-16T18:19:46;18.35;;;3.17;;
33840;SDS011;20142;28.494;-16.312;2022-10-16T18:24:47;18.92;;;3.50;;
33840;SDS011;20142;28.494;-16.312;2022-10-16T18:29:49;19.80;;;3.40;;
33840;SDS011;20142;28.494;-16.312;2022-10-16T18:34:56;17.67;;;3.15;;
33840;SDS011;20142;28.494;-16.312;2022-10-16T18:39:57;21.92;;;3.35;;
33840;SDS011;20142;28.494;-16.312;2022-10-16T18:44:59;27.33;;;3.67;;
33840;SDS011;20142;28.494;-16.312;2022-10-16T18:50:01;11.23;;;3.15;;
33840;SDS011;20142;28.494;-16.312;2022-10-16T18:55:02;27.45;;;3.90;;
33840;SDS011;20142;28.494;-16.312;2022-10-16T19:00:05;23.88;;;3.95;;
33840;SDS011;20142;28.494;-16.312;2022-10-16T19:05:07;16.92;;;3.75;;
33840;SDS011;20142;28.494;-16.312;2022-10-16T19:10:10;22.45;;;3.90;;
33840;SDS011;20142;28.494;-16.312;2022-10-16T19:15:12;23.38;;;3.55;;
33840;SDS011;20142;28.494;-16.312;2022-10-16T19:20:14;20.30;;;4.30;;
33840;SDS011;20142;28.494;-16.312;2022-10-16T19:25:16;23.10;;;3.47;;
33840;SDS011;20142;28.494;-16.312;2022-10-16T19:30:19;17.30;;;3.88;;
33840;SDS011;20142;28.494;-16.312;2022-10-16T19:35:22;23.08;;;3.58;;
33840;SDS011;20142;28.494;-16.312;2022-10-16T19:40:26;23.98;;;3.88;;
33840;SDS011;20142;28.494;-16.312;2022-10-16T19:45:28;22.75;;;4.28;;
33840;SDS011;20142;28.494;-16.312;2022-10-16T19:50:29;19.83;;;3.80;;
33840;SDS011;20142;28.494;-16.312;2022-10-16T19:55:31;26.05;;;4.45;;
33840;SDS011;20142;28.494;-16.312;2022-10-16T20:00:33;20.85;;;4.70;;
33840;SDS011;20142;28.494;-16.312;2022-10-16T20:05:34;30.60;;;4.25;;
33840;SDS011;20142;28.494;-16.312;2022-10-16T20:10:36;20.35;;;3.92;;
33840;SDS011;20142;28.494;-16.312;2022-10-16T20:15:38;26.42;;;3.92;;
33840;SDS011;20142;28.494;-16.312;2022-10-16T20:20:40;24.40;;;4.22;;
33840;SDS011;20142;28.494;-16.312;2022-10-16T20:25:44;21.55;;;4.45;;
33840;SDS011;20142;28.494;-16.312;2022-10-16T20:30:48;22.45;;;4.28;;
33840;SDS011;20142;28.494;-16.312;2022-10-16T20:35:50;28.98;;;4.82;;
33840;SDS011;20142;28.494;-16.312;2022-10-16T20:40:52;28.45;;;4.82;;
33840;SDS011;20142;28.494;-16.312;2022-10-16T20:46:04;29.88;;;5.05;;
33840;SDS011;20142;28.494;-16.312;2022-10-16T20:51:14;28.13;;;5.82;;
33840;SDS011;20142;28.494;-16.312;2022-10-16T20:56:22;25.85;;;4.28;;
33840;SDS011;20142;28.494;-16.312;2022-10-16T21:01:26;24.25;;;4.32;;
33840;SDS011;20142;28.494;-16.312;2022-10-16T21:06:31;32.88;;;5.00;;
33840;SDS011;20142;28.494;-16.312;2022-10-16T21:11:36;19.35;;;4.70;;
33840;SDS011;20142;28.494;-16.312;2022-10-16T21:16:38;30.45;;;5.15;;
33840;SDS011;20142;28.494;-16.312;2022-10-16T21:21:40;26.55;;;4.57;;
33840;SDS011;20142;28.494;-16.312;2022-10-16T21:26:41;22.17;;;4.18;;
33840;SDS011;20142;28.494;-16.312;2022-10-16T21:31:44;25.55;;;4.22;;
33840;SDS011;20142;28.494;-16.312;2022-10-16T21:36:45;32.00;;;3.78;;
33840;SDS011;20142;28.494;-16.312;2022-10-16T21:41:48;17.75;;;4.05;;
33840;SDS011;20142;28.494;-16.312;2022-10-16T21:46:50;19.17;;;3.88;;
33840;SDS011;20142;28.494;-16.312;2022-10-16T21:51:52;29.25;;;4.80;;
33840;SDS011;20142;28.494;-16.312;2022-10-16T21:56:54;24.35;;;4.30;;
33840;SDS011;20142;28.494;-16.312;2022-10-16T22:01:56;21.88;;;4.40;;
33840;SDS011;20142;28.494;-16.312;2022-10-16T22:07:00;24.88;;;4.63;;
33840;SDS011;20142;28.494;-16.312;2022-10-16T22:12:01;26.23;;;4.53;;
33840;SDS011;20142;28.494;-16.312;2022-10-16T22:17:03;25.70;;;4.43;;
33840;SDS011;20142;28.494;-16.312;2022-10-16T22:22:05;28.10;;;5.57;;
33840;SDS011;20142;28.494;-16.312;2022-10-16T22:27:07;23.77;;;4.28;;
33840;SDS011;20142;28.494;-16.312;2022-10-16T22:32:08;21.48;;;4.20;;
33840;SDS011;20142;28.494;-16.312;2022-10-16T22:37:10;18.20;;;4.50;;
33840;SDS011;20142;28.494;-16.312;2022-10-16T22:42:12;23.55;;;4.00;;
33840;SDS011;20142;28.494;-16.312;2022-10-16T22:47:13;18.88;;;4.15;;
33840;SDS011;20142;28.494;-16.312;2022-10-16T22:52:16;25.13;;;4.55;;
33840;SDS011;20142;28.494;-16.312;2022-10-16T22:57:18;22.80;;;3.53;;
33840;SDS011;20142;28.494;-16.312;2022-10-16T23:02:20;14.18;;;3.95;;
33840;SDS011;20142;28.494;-16.312;2022-10-16T23:07:21;21.48;;;4.30;;
33840;SDS011;20142;28.494;-16.312;2022-10-16T23:12:23;17.55;;;4.40;;
33840;SDS011;20142;28.494;-16.312;2022-10-16T23:17:25;26.58;;;4.70;;
33840;SDS011;20142;28.494;-16.312;2022-10-16T23:22:27;21.00;;;3.95;;
33840;SDS011;20142;28.494;-16.312;2022-10-16T23:27:29;19.40;;;3.80;;
33840;SDS011;20142;28.494;-16.312;2022-10-16T23:32:30;17.73;;;4.10;;
33840;SDS011;20142;28.494;-16.312;2022-10-16T23:37:33;18.67;;;3.95;;
33840;SDS011;20142;28.494;-16.312;2022-10-16T23:42:34;21.45;;;4.95;;
33840;SDS011;20142;28.494;-16.312;2022-10-16T23:47:36;22.02;;;4.93;;
33840;SDS011;20142;28.494;-16.312;2022-10-16T23:52:37;28.02;;;6.90;;
33840;SDS011;20142;28.494;-16.312;2022-10-16T23:57:39;15.27;;;4.90;;
